sensor_id;sensor_type;location;lat;lon;timestamp;pressure;altitude;pressure_sealevel;temperature;humidity
11011;BME280;5558;42.702;23.178;2023-06-14T00:00:34;93455.41;;;16.34;100.00
11011;BME280;5558;42.702;23.178;2023-06-14T00:03:01;93455.28;;;16.39;100.00
11011;BME280;5558;42.702;23.178;2023-06-14T00:05:29;93452.00;;;16.42;100.00
11011;BME280;5558;42.702;23.178;2023-06-14T00:07:59;93441.81;;;16.44;100.00
11011;BME280;5558;42.702;23.178;2023-06-14T00:10:25;93450.63;;;16.45;100.00
11011;BME280;5558;42.702;23.178;2023-06-14T00:12:57;93453.28;;;16.45;100.00
11011;BME280;5558;42.702;23.178;2023-06-14T00:15:25;93454.06;;;16.45;100.00
11011;BME280;5558;42.702;23.178;2023-06-14T00:17:51;93454.28;;;16.49;100.00
11011;BME280;5558;42.702;23.178;2023-06-14T00:20:18;93445.03;;;16.55;100.00
11011;BME280;5558;42.702;23.178;2023-06-14T00:22:45;93441.44;;;16.59;100.00
11011;BME280;5558;42.702;23.178;2023-06-14T00:25:12;93435.19;;;16.64;100.00
11011;BME280;5558;42.702;23.178;2023-06-14T00:27:38;93430.44;;;16.61;100.00
11011;BME280;5558;42.702;23.178;2023-06-14T00:30:08;93437.38;;;16.62;100.00
11011;BME280;5558;42.702;23.178;2023-06-14T00:32:34;93420.06;;;16.59;100.00
11011;BME280;5558;42.702;23.178;2023-06-14T00:35:01;93429.69;;;16.60;100.00
11011;BME280;5558;42.702;23.178;2023-06-14T00:37:28;93428.25;;;16.63;100.00
11011;BME280;5558;42.702;23.178;2023-06-14T00:39:55;93422.78;;;16.68;100.00
11011;BME280;5558;42.702;23.178;2023-06-14T00:42:24;93411.47;;;16.62;100.00
11011;BME280;5558;42.702;23.178;2023-06-14T00:44:51;93413.34;;;16.62;100.00
11011;BME280;5558;42.702;23.178;2023-06-14T00:47:20;93413.34;;;16.62;100.00
11011;BME280;5558;42.702;23.178;2023-06-14T00:49:47;93419.00;;;16.60;100.00
11011;BME280;5558;42.702;23.178;2023-06-14T00:52:15;93417.41;;;16.59;100.00
11011;BME280;5558;42.702;23.178;2023-06-14T00:54:42;93418.63;;;16.53;100.00
11011;BME280;5558;42.702;23.178;2023-06-14T00:57:10;93418.81;;;16.57;100.00
11011;BME280;5558;42.702;23.178;2023-06-14T00:59:43;93423.84;;;16.58;100.00
11011;BME280;5558;42.702;23.178;2023-06-14T01:02:10;93415.53;;;16.60;100.00
11011;BME280;5558;42.702;23.178;2023-06-14T01:04:39;93417.41;;;16.59;100.00
11011;BME280;5558;42.702;23.178;2023-06-14T01:07:11;93420.25;;;16.63;100.00
11011;BME280;5558;42.702;23.178;2023-06-14T01:09:48;93417.56;;;16.63;100.00
11011;BME280;5558;42.702;23.178;2023-06-14T01:12:24;93418.69;;;16.62;100.00
11011;BME280;5558;42.702;23.178;2023-06-14T01:14:57;93424.34;;;16.60;100.00
11011;BME280;5558;42.702;23.178;2023-06-14T01:17:26;93422.59;;;16.64;100.00
11011;BME280;5558;42.702;23.178;2023-06-14T01:19:58;93422.28;;;16.66;100.00
11011;BME280;5558;42.702;23.178;2023-06-14T01:22:25;93422.28;;;16.66;100.00
11011;BME280;5558;42.702;23.178;2023-06-14T01:24:54;93415.69;;;16.41;100.00
11011;BME280;5558;42.702;23.178;2023-06-14T01:27:22;93429.75;;;16.25;100.00
11011;BME280;5558;42.702;23.178;2023-06-14T01:29:54;93445.28;;;16.23;100.00
11011;BME280;5558;42.702;23.178;2023-06-14T01:32:23;93439.06;;;16.36;100.00
11011;BME280;5558;42.702;23.178;2023-06-14T01:34:51;93438.56;;;16.25;100.00
11011;BME280;5558;42.702;23.178;2023-06-14T01:37:18;93434.66;;;16.31;100.00
11011;BME280;5558;42.702;23.178;2023-06-14T01:39:47;93434.09;;;16.21;100.00
11011;BME280;5558;42.702;23.178;2023-06-14T01:42:16;93442.34;;;16.11;100.00
11011;BME280;5558;42.702;23.178;2023-06-14T01:44:44;93454.06;;;16.01;100.00
11011;BME280;5558;42.702;23.178;2023-06-14T01:47:12;93451.84;;;15.95;100.00
11011;BME280;5558;42.702;23.178;2023-06-14T01:49:39;93461.59;;;15.99;100.00
11011;BME280;5558;42.702;23.178;2023-06-14T01:52:06;93466.38;;;15.88;100.00
11011;BME280;5558;42.702;23.178;2023-06-14T01:54:36;93459.34;;;15.93;100.00
11011;BME280;5558;42.702;23.178;2023-06-14T01:57:07;93473.31;;;15.90;100.00
11011;BME280;5558;42.702;23.178;2023-06-14T01:59:35;93480.00;;;15.87;100.00
11011;BME280;5558;42.702;23.178;2023-06-14T02:02:02;93482.06;;;15.90;100.00
11011;BME280;5558;42.702;23.178;2023-06-14T02:04:30;93487.69;;;16.02;100.00
11011;BME280;5558;42.702;23.178;2023-06-14T02:06:56;93484.78;;;16.12;100.00
11011;BME280;5558;42.702;23.178;2023-06-14T02:09:23;93468.81;;;16.21;100.00
11011;BME280;5558;42.702;23.178;2023-06-14T02:11:50;93462.47;;;16.30;100.00
11011;BME280;5558;42.702;23.178;2023-06-14T02:14:17;93460.75;;;16.34;100.00
11011;BME280;5558;42.702;23.178;2023-06-14T02:16:45;93462.81;;;16.37;100.00
11011;BME280;5558;42.702;23.178;2023-06-14T02:19:14;93463.00;;;16.41;100.00
11011;BME280;5558;42.702;23.178;2023-06-14T02:21:41;93463.38;;;16.48;100.00
11011;BME280;5558;42.702;23.178;2023-06-14T02:24:07;93461.81;;;16.47;100.00
11011;BME280;5558;42.702;23.178;2023-06-14T02:26:34;93461.38;;;16.53;100.00
11011;BME280;5558;42.702;23.178;2023-06-14T02:29:03;93442.41;;;16.41;100.00
11011;BME280;5558;42.702;23.178;2023-06-14T02:31:31;93458.41;;;16.55;100.00
11011;BME280;5558;42.702;23.178;2023-06-14T02:33:59;93455.72;;;16.55;100.00
11011;BME280;5558;42.702;23.178;2023-06-14T02:36:25;93450.69;;;16.53;100.00
11011;BME280;5558;42.702;23.178;2023-06-14T02:38:52;93452.22;;;16.46;100.00
11011;BME280;5558;42.702;23.178;2023-06-14T02:41:20;93452.22;;;16.46;100.00
11011;BME280;5558;42.702;23.178;2023-06-14T02:43:47;93447.94;;;16.45;100.00
11011;BME280;5558;42.702;23.178;2023-06-14T02:46:14;93454.34;;;16.35;100.00
11011;BME280;5558;42.702;23.178;2023-06-14T02:48:41;93448.31;;;16.30;100.00
11011;BME280;5558;42.702;23.178;2023-06-14T02:51:09;93458.06;;;16.12;100.00
11011;BME280;5558;42.702;23.178;2023-06-14T02:53:35;93457.94;;;16.17;100.00
11011;BME280;5558;42.702;23.178;2023-06-14T02:56:02;93466.16;;;16.21;100.00
11011;BME280;5558;42.702;23.178;2023-06-14T02:58:30;93470.88;;;16.24;100.00
11011;BME280;5558;42.702;23.178;2023-06-14T03:00:58;93465.41;;;16.29;100.00
11011;BME280;5558;42.702;23.178;2023-06-14T03:03:28;93462.94;;;16.32;100.00
11011;BME280;5558;42.702;23.178;2023-06-14T03:05:55;93461.06;;;16.33;100.00
11011;BME280;5558;42.702;23.178;2023-06-14T03:08:23;93468.88;;;16.29;100.00
11011;BME280;5558;42.702;23.178;2023-06-14T03:10:52;93466.59;;;16.36;100.00
11011;BME280;5558;42.702;23.178;2023-06-14T03:13:21;93473.09;;;16.44;100.00
11011;BME280;5558;42.702;23.178;2023-06-14T03:15:48;93476.25;;;16.46;100.00
11011;BME280;5558;42.702;23.178;2023-06-14T03:18:16;93478.63;;;16.47;100.00
11011;BME280;5558;42.702;23.178;2023-06-14T03:20:44;93476.91;;;16.51;100.00
11011;BME280;5558;42.702;23.178;2023-06-14T03:23:12;93482.44;;;16.55;100.00
11011;BME280;5558;42.702;23.178;2023-06-14T03:25:40;93480.75;;;16.59;100.00
11011;BME280;5558;42.702;23.178;2023-06-14T03:28:07;93474.66;;;16.67;100.00
11011;BME280;5558;42.702;23.178;2023-06-14T03:30:34;93473.91;;;16.75;100.00
11011;BME280;5558;42.702;23.178;2023-06-14T03:33:01;93470.63;;;16.78;100.00
11011;BME280;5558;42.702;23.178;2023-06-14T03:35:28;93459.75;;;16.74;100.00
11011;BME280;5558;42.702;23.178;2023-06-14T03:37:55;93467.72;;;16.57;100.00
11011;BME280;5558;42.702;23.178;2023-06-14T03:40:21;93479.00;;;16.41;100.00
11011;BME280;5558;42.702;23.178;2023-06-14T03:42:53;93486.72;;;16.42;100.00
11011;BME280;5558;42.702;23.178;2023-06-14T03:45:21;93475.72;;;16.57;100.00
11011;BME280;5558;42.702;23.178;2023-06-14T03:47:48;93472.75;;;16.59;100.00
11011;BME280;5558;42.702;23.178;2023-06-14T03:50:16;93458.56;;;16.14;100.00
11011;BME280;5558;42.702;23.178;2023-06-14T03:52:43;93490.72;;;16.09;100.00
11011;BME280;5558;42.702;23.178;2023-06-14T03:55:10;93502.63;;;16.03;100.00
11011;BME280;5558;42.702;23.178;2023-06-14T03:57:38;93507.78;;;16.00;100.00
11011;BME280;5558;42.702;23.178;2023-06-14T04:00:08;93505.75;;;16.05;100.00
11011;BME280;5558;42.702;23.178;2023-06-14T04:02:36;93495.97;;;16.36;100.00
11011;BME280;5558;42.702;23.178;2023-06-14T04:05:03;93474.97;;;16.43;100.00
11011;BME280;5558;42.702;23.178;2023-06-14T04:07:30;93476.00;;;16.56;100.00
11011;BME280;5558;42.702;23.178;2023-06-14T04:10:06;93463.41;;;16.78;100.00
11011;BME280;5558;42.702;23.178;2023-06-14T04:12:32;93456.44;;;16.99;100.00
11011;BME280;5558;42.702;23.178;2023-06-14T04:15:00;93450.22;;;17.21;100.00
11011;BME280;5558;42.702;23.178;2023-06-14T04:17:29;93454.22;;;17.41;100.00
11011;BME280;5558;42.702;23.178;2023-06-14T04:19:58;93443.88;;;17.56;100.00
11011;BME280;5558;42.702;23.178;2023-06-14T04:22:25;93443.44;;;17.80;100.00
11011;BME280;5558;42.702;23.178;2023-06-14T04:24:53;93402.97;;;17.81;100.00
11011;BME280;5558;42.702;23.178;2023-06-14T04:27:21;93431.16;;;18.21;100.00
11011;BME280;5558;42.702;23.178;2023-06-14T04:29:50;93436.38;;;18.44;100.00
11011;BME280;5558;42.702;23.178;2023-06-14T04:32:23;93419.94;;;18.62;100.00
11011;BME280;5558;42.702;23.178;2023-06-14T04:34:52;93423.94;;;19.02;100.00
11011;BME280;5558;42.702;23.178;2023-06-14T04:37:19;93434.69;;;19.31;100.00
11011;BME280;5558;42.702;23.178;2023-06-14T04:39:47;93437.22;;;19.28;100.00
11011;BME280;5558;42.702;23.178;2023-06-14T04:42:14;93428.38;;;19.36;100.00
11011;BME280;5558;42.702;23.178;2023-06-14T04:44:41;93430.88;;;19.41;100.00
11011;BME280;5558;42.702;23.178;2023-06-14T04:47:09;93431.78;;;19.45;100.00
11011;BME280;5558;42.702;23.178;2023-06-14T04:49:37;93440.78;;;19.49;100.00
11011;BME280;5558;42.702;23.178;2023-06-14T04:52:06;93440.50;;;19.42;100.00
11011;BME280;5558;42.702;23.178;2023-06-14T04:54:32;93441.13;;;19.39;100.00
11011;BME280;5558;42.702;23.178;2023-06-14T04:57:02;93443.97;;;19.42;100.00
11011;BME280;5558;42.702;23.178;2023-06-14T04:59:29;93445.91;;;19.33;100.00
11011;BME280;5558;42.702;23.178;2023-06-14T05:01:58;93428.97;;;19.04;100.00
11011;BME280;5558;42.702;23.178;2023-06-14T05:04:26;93448.44;;;19.21;100.00
11011;BME280;5558;42.702;23.178;2023-06-14T05:06:53;93449.78;;;19.74;100.00
11011;BME280;5558;42.702;23.178;2023-06-14T05:09:23;93452.56;;;21.13;100.00
11011;BME280;5558;42.702;23.178;2023-06-14T05:11:49;93442.56;;;23.05;100.00
11011;BME280;5558;42.702;23.178;2023-06-14T05:14:16;93455.84;;;25.37;91.35
11011;BME280;5558;42.702;23.178;2023-06-14T05:16:43;93464.44;;;27.72;68.13
11011;BME280;5558;42.702;23.178;2023-06-14T05:19:10;93469.47;;;28.82;59.82
11011;BME280;5558;42.702;23.178;2023-06-14T05:21:37;93475.28;;;28.66;57.48
11011;BME280;5558;42.702;23.178;2023-06-14T05:24:04;93474.13;;;27.70;59.71
11011;BME280;5558;42.702;23.178;2023-06-14T05:26:32;93480.25;;;26.60;63.35
11011;BME280;5558;42.702;23.178;2023-06-14T05:28:59;93478.50;;;25.28;71.77
11011;BME280;5558;42.702;23.178;2023-06-14T05:31:27;93482.53;;;24.04;81.04
11011;BME280;5558;42.702;23.178;2023-06-14T05:33:54;93483.72;;;22.86;91.10
11011;BME280;5558;42.702;23.178;2023-06-14T05:36:21;93477.88;;;21.93;100.00
11011;BME280;5558;42.702;23.178;2023-06-14T05:38:47;93478.03;;;21.15;100.00
11011;BME280;5558;42.702;23.178;2023-06-14T05:41:14;93481.94;;;20.73;100.00
11011;BME280;5558;42.702;23.178;2023-06-14T05:43:47;93464.44;;;20.05;100.00
11011;BME280;5558;42.702;23.178;2023-06-14T05:46:14;93478.66;;;19.85;100.00
11011;BME280;5558;42.702;23.178;2023-06-14T05:48:40;93476.66;;;19.45;100.00
11011;BME280;5558;42.702;23.178;2023-06-14T05:51:07;93482.72;;;19.24;100.00
11011;BME280;5558;42.702;23.178;2023-06-14T05:53:35;93484.22;;;18.96;100.00
11011;BME280;5558;42.702;23.178;2023-06-14T05:56:02;93482.06;;;18.56;100.00
11011;BME280;5558;42.702;23.178;2023-06-14T05:58:29;93484.44;;;18.49;100.00
11011;BME280;5558;42.702;23.178;2023-06-14T06:00:57;93489.97;;;18.44;100.00
11011;BME280;5558;42.702;23.178;2023-06-14T06:03:24;93483.69;;;18.40;100.00
11011;BME280;5558;42.702;23.178;2023-06-14T06:05:50;93495.66;;;18.42;100.00
11011;BME280;5558;42.702;23.178;2023-06-14T06:08:17;93497.22;;;18.26;100.00
11011;BME280;5558;42.702;23.178;2023-06-14T06:10:44;93497.38;;;18.12;100.00
11011;BME280;5558;42.702;23.178;2023-06-14T06:13:10;93500.03;;;18.04;100.00
11011;BME280;5558;42.702;23.178;2023-06-14T06:15:39;93490.53;;;17.81;100.00
11011;BME280;5558;42.702;23.178;2023-06-14T06:18:07;93497.69;;;18.28;100.00
11011;BME280;5558;42.702;23.178;2023-06-14T06:20:33;93503.69;;;18.59;100.00
11011;BME280;5558;42.702;23.178;2023-06-14T06:23:01;93505.28;;;18.60;100.00
11011;BME280;5558;42.702;23.178;2023-06-14T06:25:29;93508.72;;;18.18;100.00
11011;BME280;5558;42.702;23.178;2023-06-14T06:27:57;93508.88;;;18.04;100.00
11011;BME280;5558;42.702;23.178;2023-06-14T06:30:24;93510.78;;;18.38;100.00
11011;BME280;5558;42.702;23.178;2023-06-14T06:32:51;93498.50;;;19.17;100.00
11011;BME280;5558;42.702;23.178;2023-06-14T06:35:19;93495.81;;;19.64;100.00
11011;BME280;5558;42.702;23.178;2023-06-14T06:37:46;93493.66;;;20.07;100.00
11011;BME280;5558;42.702;23.178;2023-06-14T06:40:13;93506.16;;;20.52;100.00
11011;BME280;5558;42.702;23.178;2023-06-14T06:42:40;93495.63;;;20.80;100.00
11011;BME280;5558;42.702;23.178;2023-06-14T06:45:07;93500.72;;;20.61;100.00
11011;BME280;5558;42.702;23.178;2023-06-14T06:47:34;93501.31;;;20.99;100.00
11011;BME280;5558;42.702;23.178;2023-06-14T06:50:01;93493.47;;;21.63;100.00
11011;BME280;5558;42.702;23.178;2023-06-14T06:52:29;93508.19;;;22.02;100.00
11011;BME280;5558;42.702;23.178;2023-06-14T06:54:56;93503.97;;;22.80;100.00
11011;BME280;5558;42.702;23.178;2023-06-14T06:57:22;93502.91;;;22.69;100.00
11011;BME280;5558;42.702;23.178;2023-06-14T06:59:49;93501.66;;;22.94;100.00
11011;BME280;5558;42.702;23.178;2023-06-14T07:02:16;93501.38;;;22.56;100.00
11011;BME280;5558;42.702;23.178;2023-06-14T07:04:43;93499.38;;;22.80;100.00
11011;BME280;5558;42.702;23.178;2023-06-14T07:07:09;93503.88;;;22.76;93.27
11011;BME280;5558;42.702;23.178;2023-06-14T07:09:38;93509.66;;;23.46;89.02
11011;BME280;5558;42.702;23.178;2023-06-14T07:12:06;93503.88;;;24.44;73.36
11011;BME280;5558;42.702;23.178;2023-06-14T07:14:33;93509.84;;;23.99;77.73
11011;BME280;5558;42.702;23.178;2023-06-14T07:17:00;93500.81;;;23.80;83.09
11011;BME280;5558;42.702;23.178;2023-06-14T07:19:26;93504.34;;;22.66;99.53
11011;BME280;5558;42.702;23.178;2023-06-14T07:21:53;93507.50;;;22.17;97.49
11011;BME280;5558;42.702;23.178;2023-06-14T07:24:20;93501.78;;;22.06;96.93
11011;BME280;5558;42.702;23.178;2023-06-14T07:26:49;93503.03;;;22.60;97.06
11011;BME280;5558;42.702;23.178;2023-06-14T07:29:15;93497.50;;;22.17;100.00
11011;BME280;5558;42.702;23.178;2023-06-14T07:31:42;93497.28;;;22.10;100.00
11011;BME280;5558;42.702;23.178;2023-06-14T07:34:09;93498.53;;;22.52;99.90
11011;BME280;5558;42.702;23.178;2023-06-14T07:36:36;93504.53;;;22.46;92.60
11011;BME280;5558;42.702;23.178;2023-06-14T07:39:03;93507.13;;;22.30;100.00
11011;BME280;5558;42.702;23.178;2023-06-14T07:41:31;93503.34;;;21.59;100.00
11011;BME280;5558;42.702;23.178;2023-06-14T07:43:59;93499.59;;;21.27;100.00
11011;BME280;5558;42.702;23.178;2023-06-14T07:46:26;93504.72;;;21.77;100.00
11011;BME280;5558;42.702;23.178;2023-06-14T07:48:53;93510.19;;;22.17;100.00
11011;BME280;5558;42.702;23.178;2023-06-14T07:51:19;93514.91;;;22.20;100.00
11011;BME280;5558;42.702;23.178;2023-06-14T07:53:47;93515.00;;;21.75;100.00
11011;BME280;5558;42.702;23.178;2023-06-14T07:56:14;93511.47;;;22.47;94.55
11011;BME280;5558;42.702;23.178;2023-06-14T07:58:41;93512.66;;;23.01;93.29
11011;BME280;5558;42.702;23.178;2023-06-14T08:01:09;93517.72;;;23.03;89.39
11011;BME280;5558;42.702;23.178;2023-06-14T08:03:36;93515.13;;;23.34;86.80
11011;BME280;5558;42.702;23.178;2023-06-14T08:06:06;93534.28;;;23.44;90.68
11011;BME280;5558;42.702;23.178;2023-06-14T08:08:33;93525.13;;;23.33;90.19
11011;BME280;5558;42.702;23.178;2023-06-14T08:11:00;93528.63;;;23.34;88.95
11011;BME280;5558;42.702;23.178;2023-06-14T08:13:26;93534.13;;;23.10;87.80
11011;BME280;5558;42.702;23.178;2023-06-14T08:15:53;93530.28;;;23.38;87.99
11011;BME280;5558;42.702;23.178;2023-06-14T08:18:22;93535.06;;;23.17;83.45
11011;BME280;5558;42.702;23.178;2023-06-14T08:20:48;93539.00;;;23.63;83.53
11011;BME280;5558;42.702;23.178;2023-06-14T08:23:15;93539.63;;;23.56;90.70
11011;BME280;5558;42.702;23.178;2023-06-14T08:25:44;93532.75;;;23.74;83.78
11011;BME280;5558;42.702;23.178;2023-06-14T08:28:11;93537.94;;;24.45;80.51
11011;BME280;5558;42.702;23.178;2023-06-14T08:30:37;93540.56;;;24.42;80.10
11011;BME280;5558;42.702;23.178;2023-06-14T08:33:04;93541.28;;;23.61;90.57
11011;BME280;5558;42.702;23.178;2023-06-14T08:35:32;93534.28;;;23.29;87.23
11011;BME280;5558;42.702;23.178;2023-06-14T08:38:02;93537.88;;;23.95;85.66
11011;BME280;5558;42.702;23.178;2023-06-14T08:40:30;93531.00;;;23.66;85.72
11011;BME280;5558;42.702;23.178;2023-06-14T08:42:57;93529.88;;;23.67;86.98
11011;BME280;5558;42.702;23.178;2023-06-14T08:45:24;93531.22;;;24.24;89.33
11011;BME280;5558;42.702;23.178;2023-06-14T08:47:51;93531.50;;;23.41;91.01
11011;BME280;5558;42.702;23.178;2023-06-14T08:50:23;93529.13;;;23.39;86.73
11011;BME280;5558;42.702;23.178;2023-06-14T08:52:54;93528.28;;;23.35;85.24
11011;BME280;5558;42.702;23.178;2023-06-14T08:55:23;93526.28;;;23.94;84.18
11011;BME280;5558;42.702;23.178;2023-06-14T08:57:54;93529.88;;;24.14;79.40
11011;BME280;5558;42.702;23.178;2023-06-14T09:00:22;93533.34;;;24.30;76.33
11011;BME280;5558;42.702;23.178;2023-06-14T09:02:49;93535.16;;;24.26;75.96
11011;BME280;5558;42.702;23.178;2023-06-14T09:05:22;93535.13;;;24.76;78.88
11011;BME280;5558;42.702;23.178;2023-06-14T09:07:49;93536.94;;;25.07;73.63
11011;BME280;5558;42.702;23.178;2023-06-14T09:10:18;93529.72;;;24.76;73.36
11011;BME280;5558;42.702;23.178;2023-06-14T09:12:44;93527.31;;;24.56;74.61
11011;BME280;5558;42.702;23.178;2023-06-14T09:15:11;93527.25;;;24.02;75.50
11011;BME280;5558;42.702;23.178;2023-06-14T09:17:39;93515.84;;;23.77;87.16
11011;BME280;5558;42.702;23.178;2023-06-14T09:20:08;93511.44;;;24.54;83.14
11011;BME280;5558;42.702;23.178;2023-06-14T09:22:36;93518.50;;;24.24;78.32
11011;BME280;5558;42.702;23.178;2023-06-14T09:25:04;93515.53;;;24.64;83.75
11011;BME280;5558;42.702;23.178;2023-06-14T09:27:32;93518.25;;;24.13;74.32
11011;BME280;5558;42.702;23.178;2023-06-14T09:30:01;93510.69;;;24.73;76.19
11011;BME280;5558;42.702;23.178;2023-06-14T09:32:28;93518.44;;;23.89;86.96
11011;BME280;5558;42.702;23.178;2023-06-14T09:34:56;93512.41;;;23.96;79.20
11011;BME280;5558;42.702;23.178;2023-06-14T09:37:28;93510.69;;;24.03;80.50
11011;BME280;5558;42.702;23.178;2023-06-14T09:39:55;93503.88;;;23.78;81.84
11011;BME280;5558;42.702;23.178;2023-06-14T09:42:22;93497.94;;;23.73;97.27
11011;BME280;5558;42.702;23.178;2023-06-14T09:44:53;93498.19;;;23.83;84.85
11011;BME280;5558;42.702;23.178;2023-06-14T09:47:21;93502.31;;;23.77;80.91
11011;BME280;5558;42.702;23.178;2023-06-14T09:49:48;93502.31;;;23.77;85.69
11011;BME280;5558;42.702;23.178;2023-06-14T09:52:17;93500.72;;;23.30;89.04
11011;BME280;5558;42.702;23.178;2023-06-14T09:54:45;93498.22;;;23.52;83.19
11011;BME280;5558;42.702;23.178;2023-06-14T09:57:14;93499.41;;;24.17;84.29
11011;BME280;5558;42.702;23.178;2023-06-14T09:59:42;93498.53;;;24.48;77.30
11011;BME280;5558;42.702;23.178;2023-06-14T10:02:20;93496.53;;;24.45;77.56
11011;BME280;5558;42.702;23.178;2023-06-14T10:05:00;93495.22;;;24.20;81.69
11011;BME280;5558;42.702;23.178;2023-06-14T10:07:35;93497.09;;;23.69;79.04
11011;BME280;5558;42.702;23.178;2023-06-14T10:10:02;93493.72;;;24.22;76.40
11011;BME280;5558;42.702;23.178;2023-06-14T10:12:30;93489.97;;;24.46;78.17
11011;BME280;5558;42.702;23.178;2023-06-14T10:14:57;93488.78;;;24.43;74.41
11011;BME280;5558;42.702;23.178;2023-06-14T10:17:33;93482.16;;;24.41;73.88
11011;BME280;5558;42.702;23.178;2023-06-14T10:20:16;93472.53;;;24.08;77.10
11011;BME280;5558;42.702;23.178;2023-06-14T10:22:50;93479.03;;;24.04;79.78
11011;BME280;5558;42.702;23.178;2023-06-14T10:25:27;93481.19;;;24.14;76.42
11011;BME280;5558;42.702;23.178;2023-06-14T10:28:02;93478.44;;;24.30;73.99
11011;BME280;5558;42.702;23.178;2023-06-14T10:30:29;93467.41;;;24.03;80.34
11011;BME280;5558;42.702;23.178;2023-06-14T10:33:07;93462.78;;;24.04;74.40
11011;BME280;5558;42.702;23.178;2023-06-14T10:35:35;93464.19;;;23.82;80.55
11011;BME280;5558;42.702;23.178;2023-06-14T10:38:09;93470.41;;;23.67;80.22
11011;BME280;5558;42.702;23.178;2023-06-14T10:40:38;93462.78;;;23.88;80.11
11011;BME280;5558;42.702;23.178;2023-06-14T10:43:26;93464.56;;;23.81;83.61
11011;BME280;5558;42.702;23.178;2023-06-14T10:46:15;93460.16;;;24.07;84.08
11011;BME280;5558;42.702;23.178;2023-06-14T10:48:44;93457.44;;;24.23;81.68
11011;BME280;5558;42.702;23.178;2023-06-14T10:51:18;93452.94;;;23.80;93.83
11011;BME280;5558;42.702;23.178;2023-06-14T10:53:48;93454.16;;;23.98;78.81
11011;BME280;5558;42.702;23.178;2023-06-14T10:56:27;93457.06;;;23.28;81.54
11011;BME280;5558;42.702;23.178;2023-06-14T10:58:54;93451.47;;;22.77;85.86
11011;BME280;5558;42.702;23.178;2023-06-14T11:01:31;93453.00;;;23.06;82.46
11011;BME280;5558;42.702;23.178;2023-06-14T11:04:07;93445.75;;;23.53;76.71
11011;BME280;5558;42.702;23.178;2023-06-14T11:06:46;93438.97;;;23.94;76.87
11011;BME280;5558;42.702;23.178;2023-06-14T11:09:41;93430.44;;;23.92;80.10
11011;BME280;5558;42.702;23.178;2023-06-14T11:12:12;93423.19;;;23.46;86.37
11011;BME280;5558;42.702;23.178;2023-06-14T11:14:39;93429.97;;;23.40;89.29
11011;BME280;5558;42.702;23.178;2023-06-14T11:17:06;93422.56;;;23.37;88.11
11011;BME280;5558;42.702;23.178;2023-06-14T11:19:34;93424.72;;;23.78;94.53
11011;BME280;5558;42.702;23.178;2023-06-14T11:22:01;93436.13;;;23.71;81.75
11011;BME280;5558;42.702;23.178;2023-06-14T11:24:28;93430.38;;;23.73;80.85
11011;BME280;5558;42.702;23.178;2023-06-14T11:26:55;93425.13;;;23.80;74.56
11011;BME280;5558;42.702;23.178;2023-06-14T11:29:22;93429.91;;;24.02;76.70
11011;BME280;5558;42.702;23.178;2023-06-14T11:31:50;93428.16;;;23.94;82.06
11011;BME280;5558;42.702;23.178;2023-06-14T11:34:17;93423.94;;;23.77;82.04
11011;BME280;5558;42.702;23.178;2023-06-14T11:36:46;93424.75;;;23.31;88.55
11011;BME280;5558;42.702;23.178;2023-06-14T11:39:13;93416.25;;;23.02;95.05
11011;BME280;5558;42.702;23.178;2023-06-14T11:41:43;93413.22;;;23.34;81.32
11011;BME280;5558;42.702;23.178;2023-06-14T11:44:10;93415.84;;;23.62;80.29
11011;BME280;5558;42.702;23.178;2023-06-14T11:46:38;93416.91;;;23.57;84.37
11011;BME280;5558;42.702;23.178;2023-06-14T11:49:07;93413.06;;;23.43;89.38
11011;BME280;5558;42.702;23.178;2023-06-14T11:51:35;93390.72;;;22.99;89.83
11011;BME280;5558;42.702;23.178;2023-06-14T11:54:04;93393.81;;;22.70;95.72
11011;BME280;5558;42.702;23.178;2023-06-14T11:56:31;93390.66;;;23.11;99.51
11011;BME280;5558;42.702;23.178;2023-06-14T11:58:58;93393.44;;;23.15;85.59
11011;BME280;5558;42.702;23.178;2023-06-14T12:01:26;93395.81;;;23.47;94.50
11011;BME280;5558;42.702;23.178;2023-06-14T12:03:53;93389.44;;;23.55;87.14
11011;BME280;5558;42.702;23.178;2023-06-14T12:06:26;93390.81;;;23.49;77.55
11011;BME280;5558;42.702;23.178;2023-06-14T12:08:55;93373.75;;;23.61;77.82
11011;BME280;5558;42.702;23.178;2023-06-14T12:11:24;93374.94;;;23.63;88.15
11011;BME280;5558;42.702;23.178;2023-06-14T12:13:54;93381.13;;;23.17;85.68
11011;BME280;5558;42.702;23.178;2023-06-14T12:16:30;93375.56;;;22.94;90.15
11011;BME280;5558;42.702;23.178;2023-06-14T12:19:01;93381.22;;;23.21;86.53
11011;BME280;5558;42.702;23.178;2023-06-14T12:21:36;93385.69;;;23.44;80.73
11011;BME280;5558;42.702;23.178;2023-06-14T12:24:04;93386.31;;;23.88;74.13
11011;BME280;5558;42.702;23.178;2023-06-14T12:26:34;93380.09;;;24.03;74.21
11011;BME280;5558;42.702;23.178;2023-06-14T12:29:05;93374.69;;;24.22;74.55
11011;BME280;5558;42.702;23.178;2023-06-14T12:31:32;93370.88;;;24.23;71.28
11011;BME280;5558;42.702;23.178;2023-06-14T12:33:59;93360.22;;;23.95;79.98
11011;BME280;5558;42.702;23.178;2023-06-14T12:36:25;93365.75;;;23.49;80.03
11011;BME280;5558;42.702;23.178;2023-06-14T12:38:52;93352.84;;;23.27;84.90
11011;BME280;5558;42.702;23.178;2023-06-14T12:41:19;93350.75;;;23.36;84.29
11011;BME280;5558;42.702;23.178;2023-06-14T12:43:48;93355.22;;;23.63;82.18
11011;BME280;5558;42.702;23.178;2023-06-14T12:46:17;93349.88;;;23.82;84.63
11011;BME280;5558;42.702;23.178;2023-06-14T12:48:43;93345.50;;;24.12;70.95
11011;BME280;5558;42.702;23.178;2023-06-14T12:51:10;93340.84;;;23.93;70.65
11011;BME280;5558;42.702;23.178;2023-06-14T12:53:37;93344.34;;;23.59;76.20
11011;BME280;5558;42.702;23.178;2023-06-14T12:56:04;93338.63;;;23.14;77.50
11011;BME280;5558;42.702;23.178;2023-06-14T12:58:31;93337.59;;;22.87;81.92
11011;BME280;5558;42.702;23.178;2023-06-14T13:00:59;93341.78;;;22.69;80.85